Time;durP1;ratioP1;P1;durP2;ratioP2;P2;SDS_P1;SDS_P2;PMS_P1;PMS_P2;Temp;Humidity;BMP_temperature;BMP_pressure;BME280_temperature;BME280_humidity;BME280_pressure;Samples;Min_cycle;Max_cycle;Signal;HPM_P1;HPM_P2
2022/02/12 00:00:22;;;;;;;;;;;1.60;99.90;;;;;;5088969;28;19924;-78
2022/02/12 00:02:49;;;;;;;;;;;1.50;99.90;;;;;;5075388;28;19935;-78
2022/02/12 00:05:16;;;;;;;;;;;1.50;99.90;;;;;;5093714;28;19959;-78
2022/02/12 00:07:42;;;;;;;;;;;1.40;99.90;;;;;;5093016;28;20293;-78
2022/02/12 00:10:08;;;;;;;;;;;1.40;99.90;;;;;;5086882;28;19912;-78
2022/02/12 00:12:33;;;;;;;;;;;1.30;99.90;;;;;;5104518;28;20332;-78
2022/02/12 00:15:00;;;;;;;;;;;1.20;99.90;;;;;;5099838;28;20353;-78
2022/02/12 00:17:26;;;;;;;;;;;1.20;99.90;;;;;;5080367;28;19964;-78
2022/02/12 00:19:51;;;;;;;;;;;1.10;99.90;;;;;;5089068;28;19916;-78
2022/02/12 00:22:17;;;;;;;;;;;1.00;99.90;;;;;;5080003;28;19916;-78
2022/02/12 00:24:43;;;;;;;;;;;1.00;99.90;;;;;;5107973;28;19973;-78
2022/02/12 00:27:08;;;;;;;;;;;1.00;99.90;;;;;;5092867;28;19916;-78
2022/02/12 00:29:34;;;;;;;;;;;1.00;99.90;;;;;;5073118;28;20027;-78
2022/02/12 00:32:00;;;;;;;;;;;1.00;99.90;;;;;;5084983;28;19920;-78
2022/02/12 00:34:25;;;;;;;;;;;0.90;99.90;;;;;;5091834;28;19965;-78
2022/02/12 00:36:51;;;;;;;;;;;0.70;99.90;;;;;;5093089;28;20458;-78
2022/02/12 00:39:17;;;;;;;;;;;0.50;99.90;;;;;;5078966;28;19920;-79
2022/02/12 00:41:42;;;;;;;;;;;0.40;99.90;;;;;;5105911;28;19916;-78
2022/02/12 00:44:08;;;;;;;;;;;0.30;99.90;;;;;;5093591;28;19912;-78
2022/02/12 00:46:34;;;;;;;;;;;0.20;99.90;;;;;;5092231;28;19966;-78
2022/02/12 00:48:59;;;;;;;;;;;0.30;99.90;;;;;;5086073;28;20345;-78
2022/02/12 00:51:25;;;;;;;;;;;0.30;99.90;;;;;;5076334;28;20444;-78
2022/02/12 00:53:51;;;;;;;;;;;0.30;99.90;;;;;;5089755;28;20454;-78
2022/02/12 00:56:17;;;;;;;;;;;0.30;99.90;;;;;;5085324;28;19937;-78
2022/02/12 00:58:42;;;;;;;;;;;0.20;99.90;;;;;;5087050;28;19916;-78
2022/02/12 01:01:08;;;;;;;;;;;0.20;99.90;;;;;;5082381;28;19954;-78
2022/02/12 01:03:34;;;;;;;;;;;0.30;99.90;;;;;;5075047;28;20389;-78
2022/02/12 01:06:00;;;;;;;;;;;0.30;99.90;;;;;;5091995;28;20270;-78
2022/02/12 01:08:25;;;;;;;;;;;0.30;99.90;;;;;;5092872;28;19918;-78
2022/02/12 01:10:51;;;;;;;;;;;0.30;99.90;;;;;;5074748;28;19916;-78
2022/02/12 01:13:16;;;;;;;;;;;0.30;99.90;;;;;;5087933;28;19962;-78
2022/02/12 01:15:43;;;;;;;;;;;0.30;99.90;;;;;;5112404;27;19912;-78
2022/02/12 01:18:08;;;;;;;;;;;0.30;99.90;;;;;;5091323;28;19965;-78
2022/02/12 01:20:34;;;;;;;;;;;0.40;99.90;;;;;;5091333;28;20435;-78
2022/02/12 01:23:00;;;;;;;;;;;0.40;99.90;;;;;;5099477;28;19952;-78
2022/02/12 01:25:27;;;;;;;;;;;0.30;99.90;;;;;;5090549;28;19939;-78
2022/02/12 01:27:53;;;;;;;;;;;0.20;99.90;;;;;;5087192;28;19912;-78
2022/02/12 01:30:19;;;;;;;;;;;0.20;99.90;;;;;;5078958;28;20298;-78
2022/02/12 01:32:45;;;;;;;;;;;0.30;99.90;;;;;;5117485;27;19923;-78
2022/02/12 01:35:10;;;;;;;;;;;0.40;99.90;;;;;;5061755;28;20412;-78
2022/02/12 01:37:36;;;;;;;;;;;0.40;99.90;;;;;;5105389;28;19970;-78
2022/02/12 01:40:02;;;;;;;;;;;0.40;99.90;;;;;;5089406;28;19920;-78
2022/02/12 01:42:28;;;;;;;;;;;0.30;99.90;;;;;;5086424;28;19912;-78
2022/02/12 01:44:54;;;;;;;;;;;0.30;99.90;;;;;;5086079;28;19927;-78
2022/02/12 01:47:20;;;;;;;;;;;0.20;99.90;;;;;;5070242;28;19916;-78
2022/02/12 01:49:45;;;;;;;;;;;0.20;99.90;;;;;;5075684;28;19916;-78
2022/02/12 01:52:12;;;;;;;;;;;0.10;99.90;;;;;;5072124;28;20005;-78
2022/02/12 01:54:39;;;;;;;;;;;0.10;99.90;;;;;;5065184;28;19923;-78
2022/02/12 01:57:06;;;;;;;;;;;0.00;99.90;;;;;;5090295;28;19959;-78
2022/02/12 01:59:32;;;;;;;;;;;0.00;99.90;;;;;;5087911;28;20010;-78
2022/02/12 02:01:58;;;;;;;;;;;-0.10;99.90;;;;;;5102923;28;19920;-78
2022/02/12 02:04:28;;;;;;;;;;;-0.10;99.90;;;;;;5090192;28;19948;-78
2022/02/12 02:06:53;;;;;;;;;;;-0.20;99.90;;;;;;5083512;28;19974;-78
2022/02/12 02:09:20;;;;;;;;;;;-0.10;99.90;;;;;;5073169;28;19924;-78
2022/02/12 02:11:48;;;;;;;;;;;0.00;99.90;;;;;;5085492;28;19927;-78
2022/02/12 02:14:14;;;;;;;;;;;-0.10;99.90;;;;;;5092293;28;19926;-78
2022/02/12 02:16:40;;;;;;;;;;;-0.10;99.90;;;;;;5073013;28;20019;-78
2022/02/12 02:19:06;;;;;;;;;;;-0.20;99.90;;;;;;5087071;28;19917;-78
2022/02/12 02:21:34;;;;;;;;;;;-0.20;99.90;;;;;;5081387;28;20458;-78
2022/02/12 02:23:59;;;;;;;;;;;-0.10;99.90;;;;;;5092080;28;19934;-78
2022/02/12 02:26:25;;;;;;;;;;;-0.20;99.90;;;;;;5091739;28;19912;-78
2022/02/12 02:28:50;;;;;;;;;;;-0.30;99.90;;;;;;5071661;28;19939;-78
2022/02/12 02:31:16;;;;;;;;;;;-0.30;99.90;;;;;;5070790;28;19931;-78
2022/02/12 02:33:42;;;;;;;;;;;-0.30;99.90;;;;;;5084774;28;19974;-78
2022/02/12 02:36:07;;;;;;;;;;;-0.40;99.90;;;;;;5090361;28;20003;-78
2022/02/12 02:38:33;;;;;;;;;;;-0.40;99.90;;;;;;5071434;28;20362;-78
2022/02/12 02:40:59;;;;;;;;;;;-0.60;99.90;;;;;;5073320;28;19916;-78
2022/02/12 02:43:25;;;;;;;;;;;-0.60;99.90;;;;;;5085044;28;19931;-78
2022/02/12 02:45:51;;;;;;;;;;;-0.60;99.90;;;;;;5065866;28;19916;-78
2022/02/12 02:48:19;;;;;;;;;;;-0.50;99.90;;;;;;5071679;28;20328;-78
2022/02/12 02:56:15;;;;;;;;;;;-0.60;99.90;;;;;;5090570;28;19927;-78
2022/02/12 02:58:41;;;;;;;;;;;-0.60;99.90;;;;;;5083824;28;19912;-78
2022/02/12 03:01:07;;;;;;;;;;;-0.80;99.90;;;;;;5091260;28;19916;-78
2022/02/12 03:03:33;;;;;;;;;;;-0.90;99.90;;;;;;5092053;28;19908;-78
2022/02/12 03:05:58;;;;;;;;;;;-1.00;99.90;;;;;;5090529;28;19916;-78
2022/02/12 03:08:24;;;;;;;;;;;-0.90;99.90;;;;;;5092429;28;20026;-78
2022/02/12 03:10:50;;;;;;;;;;;-0.90;99.90;;;;;;5102437;28;19938;-78
2022/02/12 03:13:16;;;;;;;;;;;-0.90;99.90;;;;;;5105248;28;19916;-78
2022/02/12 03:15:42;;;;;;;;;;;-0.90;99.90;;;;;;5086741;28;19939;-78
2022/02/12 03:18:08;;;;;;;;;;;-1.00;99.90;;;;;;5070298;28;19924;-78
2022/02/12 03:20:33;;;;;;;;;;;-1.00;99.90;;;;;;5085385;28;19987;-78
2022/02/12 03:23:00;;;;;;;;;;;-1.00;99.90;;;;;;5094343;28;19940;-78
2022/02/12 03:25:25;;;;;;;;;;;-1.00;99.90;;;;;;5094107;28;19962;-79
2022/02/12 03:27:52;;;;;;;;;;;-1.00;99.90;;;;;;5075694;28;19920;-78
2022/02/12 03:30:17;;;;;;;;;;;-1.00;99.90;;;;;;5094436;28;20339;-78
2022/02/12 03:32:43;;;;;;;;;;;-1.00;99.90;;;;;;5092497;28;19966;-78
2022/02/12 03:35:09;;;;;;;;;;;-0.90;99.90;;;;;;5089936;28;19924;-78
2022/02/12 03:37:34;;;;;;;;;;;-0.90;99.90;;;;;;5085462;28;20033;-78
2022/02/12 03:40:00;;;;;;;;;;;-0.80;99.90;;;;;;5095257;28;19923;-78
2022/02/12 03:42:25;;;;;;;;;;;-0.80;99.90;;;;;;5088796;28;20003;-78
2022/02/12 03:44:51;;;;;;;;;;;-0.70;99.90;;;;;;5091512;28;19916;-78
2022/02/12 03:47:17;;;;;;;;;;;-0.60;99.90;;;;;;5093650;28;20350;-78
2022/02/12 03:49:44;;;;;;;;;;;-0.50;99.90;;;;;;5092406;28;19920;-79
2022/02/12 03:52:09;;;;;;;;;;;-0.50;99.90;;;;;;5092902;28;19919;-78
2022/02/12 03:54:35;;;;;;;;;;;-0.40;99.90;;;;;;5102084;28;19916;-78
2022/02/12 03:57:00;;;;;;;;;;;-0.40;99.90;;;;;;5096932;28;19973;-78
2022/02/12 03:59:26;;;;;;;;;;;-0.30;99.90;;;;;;5088516;28;19923;-78
2022/02/12 04:01:51;;;;;;;;;;;-0.20;99.90;;;;;;5082687;28;20287;-78
2022/02/12 04:04:17;;;;;;;;;;;-0.20;99.90;;;;;;5095061;28;19971;-78
2022/02/12 04:06:42;;;;;;;;;;;-0.30;99.90;;;;;;5088820;28;19920;-78
2022/02/12 04:09:08;;;;;;;;;;;-0.30;99.90;;;;;;5070576;28;19935;-78
2022/02/12 04:11:34;;;;;;;;;;;-0.30;99.90;;;;;;5078650;28;20008;-78
2022/02/12 04:13:59;;;;;;;;;;;-0.30;99.90;;;;;;5092818;28;20421;-78
2022/02/12 04:16:25;;;;;;;;;;;-0.30;99.90;;;;;;5072897;28;20405;-78
2022/02/12 04:18:51;;;;;;;;;;;-0.30;99.90;;;;;;5073057;28;19913;-78
2022/02/12 04:21:16;;;;;;;;;;;-0.30;99.90;;;;;;5088231;28;19917;-78
2022/02/12 04:23:42;;;;;;;;;;;-0.20;99.90;;;;;;5076746;28;19962;-78
2022/02/12 04:26:09;;;;;;;;;;;-0.30;99.90;;;;;;5094617;28;19912;-78
2022/02/12 04:28:37;;;;;;;;;;;-0.30;99.90;;;;;;5092230;28;19920;-78
2022/02/12 04:31:06;;;;;;;;;;;-0.40;99.90;;;;;;5094537;28;19924;-78
2022/02/12 04:33:32;;;;;;;;;;;-0.40;99.90;;;;;;5088745;28;19995;-79
2022/02/12 04:35:58;;;;;;;;;;;-0.40;99.90;;;;;;5090904;28;19962;-78
2022/02/12 04:38:24;;;;;;;;;;;-0.40;99.90;;;;;;5073925;28;19968;-78
2022/02/12 04:40:50;;;;;;;;;;;-0.40;99.90;;;;;;5057132;28;19921;-78
2022/02/12 04:43:15;;;;;;;;;;;-0.40;99.90;;;;;;5091650;28;20021;-78
2022/02/12 04:45:41;;;;;;;;;;;-0.40;99.90;;;;;;5087646;28;19916;-79
2022/02/12 04:48:07;;;;;;;;;;;-0.40;99.90;;;;;;5071263;28;19917;-78
2022/02/12 04:50:32;;;;;;;;;;;-0.40;99.90;;;;;;5089446;28;20267;-78
2022/02/12 04:52:58;;;;;;;;;;;-0.50;99.90;;;;;;5075012;28;19923;-78
2022/02/12 04:55:24;;;;;;;;;;;-0.50;99.90;;;;;;5108486;28;19970;-78
2022/02/12 04:57:50;;;;;;;;;;;-0.50;99.90;;;;;;5091811;28;19924;-78
2022/02/12 05:00:16;;;;;;;;;;;-0.40;99.90;;;;;;5073184;28;19913;-78
2022/02/12 05:02:41;;;;;;;;;;;-0.30;99.90;;;;;;5084253;28;19912;-78
2022/02/12 05:05:08;;;;;;;;;;;-0.20;99.90;;;;;;5109003;28;20596;-78
2022/02/12 05:07:33;;;;;;;;;;;-0.10;99.90;;;;;;5095336;28;20496;-79
2022/02/12 05:09:59;;;;;;;;;;;0.00;99.90;;;;;;5088208;28;19926;-79
2022/02/12 05:12:25;;;;;;;;;;;0.00;99.90;;;;;;5090919;28;20432;-78
2022/02/12 05:14:51;;;;;;;;;;;0.00;99.90;;;;;;5090834;28;20289;-78
2022/02/12 05:17:16;;;;;;;;;;;0.10;99.90;;;;;;5073185;28;19927;-78
2022/02/12 05:19:42;;;;;;;;;;;0.10;99.90;;;;;;5088634;28;19912;-78
2022/02/12 05:22:08;;;;;;;;;;;0.10;99.90;;;;;;5078524;28;19912;-78
2022/02/12 05:24:33;;;;;;;;;;;0.20;99.90;;;;;;5074998;28;19920;-78
2022/02/12 05:26:59;;;;;;;;;;;0.20;99.90;;;;;;5091461;28;19970;-78
2022/02/12 05:29:24;;;;;;;;;;;0.20;99.90;;;;;;5080293;28;19913;-78
2022/02/12 05:31:50;;;;;;;;;;;0.10;99.90;;;;;;5088457;28;19916;-78
2022/02/12 05:34:16;;;;;;;;;;;0.00;99.90;;;;;;5072666;28;19917;-79
2022/02/12 05:36:42;;;;;;;;;;;0.00;99.90;;;;;;5085272;28;19912;-79
2022/02/12 05:39:09;;;;;;;;;;;0.00;99.90;;;;;;5102779;28;19953;-79
2022/02/12 05:41:35;;;;;;;;;;;-0.20;99.90;;;;;;5097984;28;19922;-78
2022/02/12 05:44:01;;;;;;;;;;;-0.30;99.90;;;;;;5097084;28;19917;-79
2022/02/12 05:46:27;;;;;;;;;;;-0.30;99.90;;;;;;5082671;28;20083;-79
2022/02/12 05:48:52;;;;;;;;;;;-0.40;99.90;;;;;;5072427;28;20532;-78
2022/02/12 05:51:18;;;;;;;;;;;-0.50;99.90;;;;;;5098452;28;19966;-79
2022/02/12 05:53:44;;;;;;;;;;;-0.60;99.90;;;;;;5113481;22;19928;-79
2022/02/12 05:56:10;;;;;;;;;;;-0.70;99.90;;;;;;5091331;28;20292;-78
2022/02/12 05:58:36;;;;;;;;;;;-0.60;99.90;;;;;;5095219;28;20006;-78
2022/02/12 06:01:01;;;;;;;;;;;-0.60;99.90;;;;;;5094956;28;20366;-78
2022/02/12 06:03:27;;;;;;;;;;;-0.60;99.90;;;;;;5092055;28;20293;-79
2022/02/12 06:05:53;;;;;;;;;;;-0.70;99.90;;;;;;5075348;28;19912;-79
2022/02/12 06:08:18;;;;;;;;;;;-0.70;99.90;;;;;;5076950;28;20500;-78
2022/02/12 06:10:44;;;;;;;;;;;-0.70;99.90;;;;;;5085647;28;20014;-78
2022/02/12 06:13:10;;;;;;;;;;;-0.60;99.90;;;;;;5064883;28;19978;-78
2022/02/12 06:15:36;;;;;;;;;;;-0.60;99.90;;;;;;5081650;28;20015;-79
2022/02/12 06:18:05;;;;;;;;;;;-0.70;99.90;;;;;;5059202;28;19974;-79
2022/02/12 06:20:30;;;;;;;;;;;-0.70;99.90;;;;;;5068622;28;20004;-79
2022/02/12 06:22:57;;;;;;;;;;;-0.80;99.90;;;;;;5071336;28;19966;-79
2022/02/12 06:25:22;;;;;;;;;;;-0.80;99.90;;;;;;5102110;28;19923;-78
2022/02/12 06:27:48;;;;;;;;;;;-0.80;99.90;;;;;;5076156;28;20370;-78
2022/02/12 06:30:14;;;;;;;;;;;-0.70;99.90;;;;;;5072031;28;20546;-78
2022/02/12 06:32:39;;;;;;;;;;;-0.70;99.90;;;;;;5069439;28;20034;-78
2022/02/12 06:35:05;;;;;;;;;;;-0.80;99.90;;;;;;5075536;28;20400;-78
2022/02/12 06:37:30;;;;;;;;;;;-0.80;99.90;;;;;;5073692;28;19920;-79
2022/02/12 06:39:57;;;;;;;;;;;-0.70;99.90;;;;;;5107278;28;19948;-78
2022/02/12 06:42:22;;;;;;;;;;;-0.70;99.90;;;;;;5097042;28;19913;-79
2022/02/12 06:44:48;;;;;;;;;;;-0.70;99.90;;;;;;5081188;28;19920;-79
2022/02/12 06:47:14;;;;;;;;;;;-0.70;99.90;;;;;;5090661;28;19917;-79
2022/02/12 06:49:39;;;;;;;;;;;-0.70;99.90;;;;;;5075107;28;20406;-78
2022/02/12 06:52:05;;;;;;;;;;;-0.70;99.90;;;;;;5084095;28;20278;-78
2022/02/12 06:54:31;;;;;;;;;;;-0.70;99.90;;;;;;5066783;28;20421;-79
2022/02/12 06:56:57;;;;;;;;;;;-0.70;99.90;;;;;;5076019;28;19923;-78
2022/02/12 06:59:22;;;;;;;;;;;-0.60;99.90;;;;;;5071142;28;19913;-79
2022/02/12 07:01:48;;;;;;;;;;;-0.70;99.90;;;;;;5062861;28;19962;-79
2022/02/12 07:04:14;;;;;;;;;;;-0.80;99.90;;;;;;5083186;28;20018;-79
2022/02/12 07:06:40;;;;;;;;;;;-0.80;99.90;;;;;;5079059;28;19917;-78
2022/02/12 07:09:06;;;;;;;;;;;-0.80;99.90;;;;;;5082428;28;20037;-79
2022/02/12 07:11:32;;;;;;;;;;;-1.00;99.90;;;;;;5080628;28;20731;-79
2022/02/12 07:13:58;;;;;;;;;;;-1.00;99.90;;;;;;5078704;28;20484;-78
2022/02/12 07:16:23;;;;;;;;;;;-1.00;99.90;;;;;;5077879;28;20064;-79
2022/02/12 07:18:49;;;;;;;;;;;-1.00;99.90;;;;;;5075914;28;19955;-79
2022/02/12 07:21:15;;;;;;;;;;;-0.90;99.90;;;;;;5075656;28;20414;-79
2022/02/12 07:23:41;;;;;;;;;;;-1.00;99.90;;;;;;5078420;28;20422;-79
2022/02/12 07:26:07;;;;;;;;;;;-1.00;99.90;;;;;;5071080;28;19913;-78
2022/02/12 07:28:32;;;;;;;;;;;-1.00;99.90;;;;;;5072041;28;19913;-79
2022/02/12 07:30:58;;;;;;;;;;;-1.10;99.90;;;;;;5070685;28;19986;-78
2022/02/12 07:33:26;;;;;;;;;;;-1.10;99.90;;;;;;5076831;28;21243;-79
2022/02/12 07:35:54;;;;;;;;;;;-1.10;99.90;;;;;;5075212;28;19912;-79
2022/02/12 07:38:20;;;;;;;;;;;-1.10;99.90;;;;;;5075481;28;19917;-79
2022/02/12 07:40:46;;;;;;;;;;;-1.00;99.90;;;;;;5083549;28;20343;-79
2022/02/12 07:43:12;;;;;;;;;;;-1.00;99.90;;;;;;5072109;28;20369;-79
2022/02/12 07:45:37;;;;;;;;;;;-1.10;99.90;;;;;;5073625;28;19913;-79
2022/02/12 07:48:03;;;;;;;;;;;-1.10;99.90;;;;;;5067374;28;20570;-78
2022/02/12 07:50:29;;;;;;;;;;;-1.10;99.90;;;;;;5077970;28;19997;-78
2022/02/12 07:52:54;;;;;;;;;;;-1.10;99.90;;;;;;5072223;28;20336;-79
2022/02/12 07:55:20;;;;;;;;;;;-1.10;99.90;;;;;;5063612;28;19926;-78
2022/02/12 07:57:46;;;;;;;;;;;-1.00;99.90;;;;;;5079071;28;19927;-78
2022/02/12 08:00:13;;;;;;;;;;;-0.90;99.90;;;;;;5077754;28;20401;-79
2022/02/12 08:02:39;;;;;;;;;;;-0.90;99.90;;;;;;5083540;28;19912;-78
2022/02/12 08:05:06;;;;;;;;;;;-0.70;99.90;;;;;;5079769;28;19917;-79
2022/02/12 08:07:31;;;;;;;;;;;-0.70;99.90;;;;;;5071429;28;19924;-80
2022/02/12 08:11:22;;;;;;;;;;;-0.60;99.90;;;;;;5091060;28;20271;-79
2022/02/12 08:12:47;;;;;;;;;;;-0.60;99.90;;;;;;5069827;28;19969;-79
2022/02/12 08:15:13;;;;;;;;;;;-0.50;99.90;;;;;;5095832;28;19950;-80
2022/02/12 08:17:39;;;;;;;;;;;-0.40;99.90;;;;;;5079947;28;19921;-80
2022/02/12 08:20:05;;;;;;;;;;;-0.50;99.90;;;;;;5078401;28;19928;-79
2022/02/12 08:22:30;;;;;;;;;;;-0.40;99.90;;;;;;5077085;28;19917;-79
2022/02/12 08:24:56;;;;;;;;;;;-0.30;99.90;;;;;;5082376;28;20007;-80
2022/02/12 08:27:27;;;;;;;;;;;-0.20;99.90;;;;;;5068684;28;20425;-78
2022/02/12 08:29:52;;;;;;;;;;;-0.10;99.90;;;;;;5081553;28;19927;-78
2022/02/12 08:32:18;;;;;;;;;;;-0.10;99.90;;;;;;5076229;28;20394;-79
2022/02/12 08:34:44;;;;;;;;;;;0.10;99.90;;;;;;5076852;28;19923;-79
2022/02/12 08:37:09;;;;;;;;;;;0.10;99.90;;;;;;5074081;28;19920;-78
2022/02/12 08:39:35;;;;;;;;;;;0.20;99.90;;;;;;5074748;28;19917;-79
2022/02/12 08:42:00;;;;;;;;;;;0.20;99.90;;;;;;5080786;28;19960;-80
2022/02/12 08:44:26;;;;;;;;;;;0.30;99.90;;;;;;5087586;28;20493;-80
2022/02/12 08:46:52;;;;;;;;;;;0.20;99.90;;;;;;5072393;28;19922;-80
2022/02/12 08:49:17;;;;;;;;;;;0.20;99.90;;;;;;5078497;28;19924;-79
2022/02/12 08:51:43;;;;;;;;;;;0.20;99.90;;;;;;5084105;28;19936;-79
2022/02/12 08:54:10;;;;;;;;;;;0.30;99.90;;;;;;5071901;28;19952;-80
2022/02/12 08:56:38;;;;;;;;;;;0.40;99.90;;;;;;5071732;28;19916;-78
2022/02/12 08:59:04;;;;;;;;;;;0.50;99.90;;;;;;5073015;28;19958;-79
2022/02/12 09:01:30;;;;;;;;;;;0.60;99.90;;;;;;5089802;28;19916;-78
2022/02/12 09:03:55;;;;;;;;;;;0.70;99.90;;;;;;5085652;28;19919;-77
2022/02/12 09:06:21;;;;;;;;;;;0.80;99.90;;;;;;5081267;28;19917;-80
2022/02/12 09:08:51;;;;;;;;;;;0.90;99.90;;;;;;5088689;28;19916;-79
2022/02/12 09:11:23;;;;;;;;;;;0.90;99.90;;;;;;5076526;28;20313;-80
2022/02/12 09:13:49;;;;;;;;;;;0.90;99.90;;;;;;5079218;28;19912;-80
2022/02/12 09:16:16;;;;;;;;;;;1.00;99.90;;;;;;5091809;28;20003;-80
2022/02/12 09:18:42;;;;;;;;;;;1.10;99.90;;;;;;5078746;28;19912;-79
2022/02/12 09:21:07;;;;;;;;;;;1.20;99.90;;;;;;5069525;28;19912;-80
2022/02/12 09:23:33;;;;;;;;;;;1.40;99.90;;;;;;5045279;28;20485;-78
2022/02/12 09:25:59;;;;;;;;;;;1.40;99.90;;;;;;5064215;28;19920;-78
2022/02/12 09:28:24;;;;;;;;;;;1.50;99.90;;;;;;5054347;28;20017;-80
2022/02/12 09:30:50;;;;;;;;;;;1.50;99.90;;;;;;5064279;28;20282;-79
2022/02/12 09:33:15;;;;;;;;;;;1.60;99.90;;;;;;5050713;28;19912;-80
2022/02/12 09:35:41;;;;;;;;;;;1.70;99.90;;;;;;5061898;28;20007;-80
2022/02/12 09:38:06;;;;;;;;;;;1.80;99.90;;;;;;5059402;28;19928;-78
2022/02/12 09:40:32;;;;;;;;;;;2.00;99.90;;;;;;5049354;28;19981;-81
2022/02/12 09:43:01;;;;;;;;;;;2.00;99.90;;;;;;5083204;28;20281;-81
2022/02/12 09:45:31;;;;;;;;;;;2.00;99.90;;;;;;5061502;28;19916;-80
2022/02/12 09:47:57;;;;;;;;;;;2.10;99.90;;;;;;5082710;28;20011;-81
2022/02/12 09:50:23;;;;;;;;;;;2.20;99.90;;;;;;5048925;28;19952;-79
2022/02/12 09:52:53;;;;;;;;;;;2.30;99.90;;;;;;5048743;28;20286;-79
2022/02/12 09:55:19;;;;;;;;;;;2.40;99.90;;;;;;5069275;28;19919;-79
2022/02/12 09:57:45;;;;;;;;;;;2.40;99.90;;;;;;5061073;28;19927;-79
2022/02/12 10:00:11;;;;;;;;;;;2.50;99.90;;;;;;5050255;28;19960;-79
2022/02/12 10:02:37;;;;;;;;;;;2.50;99.90;;;;;;5060199;28;20051;-79
2022/02/12 10:05:19;;;;;;;;;;;2.50;99.90;;;;;;5064272;28;20484;-78
2022/02/12 10:07:45;;;;;;;;;;;2.70;99.90;;;;;;5070441;28;19916;-79
2022/02/12 10:10:20;;;;;;;;;;;2.70;99.90;;;;;;5084333;28;19930;-80
2022/02/12 10:12:47;;;;;;;;;;;2.70;99.90;;;;;;5090272;28;19997;-79
2022/02/12 10:15:23;;;;;;;;;;;2.80;99.90;;;;;;5074654;28;19957;-79
2022/02/12 10:17:50;;;;;;;;;;;2.90;99.90;;;;;;5089354;28;19970;-79
2022/02/12 10:20:30;;;;;;;;;;;3.00;99.90;;;;;;5068736;28;19921;-78
2022/02/12 10:23:01;;;;;;;;;;;3.00;99.90;;;;;;5070420;28;19927;-80
2022/02/12 10:25:27;;;;;;;;;;;3.00;99.90;;;;;;5065829;28;19912;-79
2022/02/12 10:27:53;;;;;;;;;;;3.00;99.90;;;;;;5062343;28;19976;-79
2022/02/12 10:30:18;;;;;;;;;;;3.10;99.90;;;;;;5076247;28;20328;-80
2022/02/12 10:32:44;;;;;;;;;;;3.20;99.90;;;;;;5072248;28;19938;-79
2022/02/12 10:35:10;;;;;;;;;;;3.30;99.90;;;;;;5079548;28;19923;-78
2022/02/12 10:37:42;;;;;;;;;;;3.40;99.90;;;;;;5080754;28;19920;-80
2022/02/12 10:40:08;;;;;;;;;;;3.40;99.90;;;;;;5076621;28;20014;-78
2022/02/12 10:42:43;;;;;;;;;;;3.50;99.90;;;;;;5091934;28;20389;-80
2022/02/12 10:45:12;;;;;;;;;;;3.50;99.90;;;;;;5087946;28;19916;-79
2022/02/12 10:47:38;;;;;;;;;;;3.50;99.90;;;;;;5071951;28;19924;-78
2022/02/12 10:50:03;;;;;;;;;;;3.50;99.90;;;;;;5071481;28;19912;-78
2022/02/12 10:52:45;;;;;;;;;;;3.70;99.90;;;;;;5089033;28;19916;-80
2022/02/12 10:55:29;;;;;;;;;;;3.80;99.90;;;;;;5059058;28;20398;-80
2022/02/12 10:57:55;;;;;;;;;;;3.80;99.90;;;;;;5061530;28;19969;-79
2022/02/12 11:00:23;;;;;;;;;;;3.90;99.90;;;;;;5073362;28;19917;-79
2022/02/12 11:02:49;;;;;;;;;;;3.90;99.90;;;;;;5093797;28;19912;-80
2022/02/12 11:05:15;;;;;;;;;;;4.00;99.90;;;;;;5111750;28;19919;-79
2022/02/12 11:07:41;;;;;;;;;;;4.10;99.90;;;;;;5092642;28;19919;-79
2022/02/12 11:10:07;;;;;;;;;;;4.10;99.90;;;;;;5078220;28;19939;-79
2022/02/12 11:12:35;;;;;;;;;;;4.10;99.90;;;;;;5094763;28;19938;-78
2022/02/12 11:15:01;;;;;;;;;;;4.00;99.90;;;;;;5080702;28;19970;-80
2022/02/12 11:17:28;;;;;;;;;;;4.00;99.90;;;;;;5085431;28;19920;-79
2022/02/12 11:19:54;;;;;;;;;;;3.90;99.90;;;;;;5077762;28;19916;-79
2022/02/12 11:22:20;;;;;;;;;;;3.90;99.90;;;;;;5094220;28;19927;-80
2022/02/12 11:24:48;;;;;;;;;;;3.90;99.90;;;;;;5068705;28;19913;-79
2022/02/12 11:27:20;;;;;;;;;;;4.00;99.90;;;;;;5062522;28;19917;-78
2022/02/12 11:29:47;;;;;;;;;;;4.00;99.90;;;;;;5079528;28;20396;-80
2022/02/12 11:32:14;;;;;;;;;;;4.00;99.90;;;;;;5070943;28;19916;-80
2022/02/12 11:34:41;;;;;;;;;;;4.00;99.90;;;;;;5062834;28;19924;-79
2022/02/12 11:37:13;;;;;;;;;;;4.00;99.90;;;;;;5072523;28;20015;-80
2022/02/12 11:39:38;;;;;;;;;;;4.00;99.90;;;;;;5079070;28;20219;-79
2022/02/12 11:42:07;;;;;;;;;;;4.10;99.90;;;;;;5063960;28;19916;-78
2022/02/12 11:44:43;;;;;;;;;;;4.10;99.90;;;;;;5073833;28;20145;-78
2022/02/12 11:47:10;;;;;;;;;;;4.20;99.90;;;;;;5074218;28;20340;-79
2022/02/12 11:49:39;;;;;;;;;;;4.30;99.90;;;;;;5064450;28;19918;-80
2022/02/12 11:52:07;;;;;;;;;;;4.30;99.90;;;;;;5078982;28;19920;-80
2022/02/12 11:54:45;;;;;;;;;;;4.30;99.90;;;;;;5059540;28;19920;-80
2022/02/12 11:57:17;;;;;;;;;;;4.40;99.90;;;;;;5086117;28;19916;-81
2022/02/12 11:59:44;;;;;;;;;;;4.40;99.90;;;;;;5068951;28;20003;-83
2022/02/12 12:02:29;;;;;;;;;;;4.40;99.90;;;;;;5046115;28;20445;-81
2022/02/12 12:05:11;;;;;;;;;;;4.50;99.90;;;;;;5068970;28;19913;-82
2022/02/12 12:07:57;;;;;;;;;;;4.40;99.90;;;;;;5076741;22;19964;-79
2022/02/12 12:10:22;;;;;;;;;;;4.30;99.90;;;;;;5052117;28;19999;-79
2022/02/12 12:12:48;;;;;;;;;;;4.40;99.90;;;;;;5038520;28;19959;-81
2022/02/12 12:15:15;;;;;;;;;;;4.40;99.90;;;;;;5033275;28;20440;-79
2022/02/12 12:17:41;;;;;;;;;;;4.40;99.90;;;;;;5025880;28;19928;-81
2022/02/12 12:20:07;;;;;;;;;;;4.50;99.90;;;;;;5041227;28;19944;-80
2022/02/12 12:22:33;;;;;;;;;;;4.40;99.90;;;;;;5036489;28;19924;-79
2022/02/12 12:24:58;;;;;;;;;;;4.50;99.90;;;;;;5023193;28;20353;-80
2022/02/12 12:27:24;;;;;;;;;;;4.60;99.90;;;;;;5032678;28;19917;-80
2022/02/12 12:32:34;;;;;;;;;;;4.70;99.90;;;;;;5033764;28;19929;-80
2022/02/12 12:35:04;;;;;;;;;;;4.70;99.90;;;;;;5032388;28;19921;-79
2022/02/12 12:37:34;;;;;;;;;;;4.80;99.90;;;;;;5038338;28;20338;-79
2022/02/12 12:40:01;;;;;;;;;;;4.90;99.90;;;;;;5034422;28;19913;-79
2022/02/12 12:42:27;;;;;;;;;;;5.10;99.90;;;;;;5033455;28;20438;-79
2022/02/12 12:44:57;;;;;;;;;;;5.00;99.90;;;;;;5032686;28;20007;-79
2022/02/12 12:47:23;;;;;;;;;;;4.90;99.90;;;;;;5014450;28;19984;-79
2022/02/12 12:49:52;;;;;;;;;;;4.80;99.90;;;;;;5035852;28;19948;-80
2022/02/12 12:52:21;;;;;;;;;;;4.80;99.90;;;;;;5031102;28;20004;-80
2022/02/12 12:54:46;;;;;;;;;;;4.80;99.90;;;;;;5030029;28;20015;-79
2022/02/12 12:57:13;;;;;;;;;;;4.80;99.90;;;;;;5030073;28;20426;-79
2022/02/12 12:59:52;;;;;;;;;;;4.80;99.90;;;;;;5022406;28;19917;-80
2022/02/12 13:02:18;;;;;;;;;;;4.80;99.90;;;;;;5043280;28;20259;-79
2022/02/12 13:04:53;;;;;;;;;;;4.90;99.90;;;;;;5028862;28;20403;-80
2022/02/12 13:07:20;;;;;;;;;;;5.00;99.90;;;;;;5051696;28;19939;-80
2022/02/12 13:09:46;;;;;;;;;;;5.00;99.90;;;;;;5016483;28;19936;-81
2022/02/12 13:12:24;;;;;;;;;;;5.00;99.90;;;;;;5016989;28;19917;-80
2022/02/12 13:14:50;;;;;;;;;;;5.00;99.90;;;;;;5037749;28;19957;-80
2022/02/12 13:17:16;;;;;;;;;;;5.10;99.90;;;;;;5023798;28;20394;-80
2022/02/12 13:19:41;;;;;;;;;;;5.10;99.90;;;;;;5018056;28;20367;-79
2022/02/12 13:22:07;;;;;;;;;;;5.00;99.90;;;;;;5018384;28;20341;-79
2022/02/12 13:24:33;;;;;;;;;;;4.90;99.90;;;;;;5029424;28;19917;-79
2022/02/12 13:26:59;;;;;;;;;;;4.80;99.90;;;;;;5012442;28;19913;-79
2022/02/12 13:29:26;;;;;;;;;;;4.70;99.90;;;;;;5022121;28;20290;-79
2022/02/12 13:31:54;;;;;;;;;;;4.70;99.90;;;;;;5028979;28;20603;-80
2022/02/12 13:34:20;;;;;;;;;;;4.70;99.90;;;;;;5040504;28;19943;-80
2022/02/12 13:36:47;;;;;;;;;;;4.60;99.90;;;;;;5018817;28;20378;-81
2022/02/12 13:39:17;;;;;;;;;;;4.60;99.90;;;;;;5034129;28;19913;-79
2022/02/12 13:41:43;;;;;;;;;;;4.60;99.90;;;;;;5024344;28;20036;-81
2022/02/12 13:44:08;;;;;;;;;;;4.60;99.90;;;;;;5028470;28;19921;-80
2022/02/12 13:46:35;;;;;;;;;;;4.60;99.90;;;;;;5034432;28;19988;-79
2022/02/12 13:49:13;;;;;;;;;;;4.60;99.90;;;;;;5017011;28;19948;-81
2022/02/12 13:51:49;;;;;;;;;;;4.60;99.90;;;;;;5032446;28;20296;-80
2022/02/12 13:54:14;;;;;;;;;;;4.50;99.90;;;;;;5038554;28;20294;-78
2022/02/12 13:56:41;;;;;;;;;;;4.50;99.90;;;;;;5033547;28;19922;-81
2022/02/12 13:59:07;;;;;;;;;;;4.50;99.90;;;;;;5000378;28;19921;-79
2022/02/12 14:01:33;;;;;;;;;;;4.50;99.90;;;;;;5028527;28;19913;-81
2022/02/12 14:03:58;;;;;;;;;;;4.50;99.90;;;;;;5021552;28;20386;-80
2022/02/12 14:06:24;;;;;;;;;;;4.60;99.90;;;;;;5030181;28;19920;-80
2022/02/12 14:08:50;;;;;;;;;;;4.60;99.90;;;;;;4997532;28;19928;-80
2022/02/12 14:11:18;;;;;;;;;;;4.60;99.90;;;;;;5016689;28;20436;-79
2022/02/12 14:13:43;;;;;;;;;;;4.60;99.90;;;;;;5035751;28;20549;-79
2022/02/12 14:16:09;;;;;;;;;;;4.60;99.90;;;;;;5015947;28;19947;-80
2022/02/12 14:18:35;;;;;;;;;;;4.60;99.90;;;;;;5023929;28;19912;-79
2022/02/12 14:21:01;;;;;;;;;;;4.60;99.90;;;;;;5001621;28;19921;-80
2022/02/12 14:23:27;;;;;;;;;;;4.60;99.90;;;;;;5032410;28;19922;-80
2022/02/12 14:25:52;;;;;;;;;;;4.60;99.90;;;;;;5003630;28;19918;-81
2022/02/12 14:28:18;;;;;;;;;;;4.50;99.90;;;;;;5006631;28;19964;-81